sensor_id;sensor_type;location;lat;lon;timestamp;temperature;humidity
6293;DHT22;3179;54.350;10.102;2024-01-27T00:02:06;7.50;99.90
6293;DHT22;3179;54.350;10.102;2024-01-27T00:04:35;7.50;99.90
6293;DHT22;3179;54.350;10.102;2024-01-27T00:07:02;7.60;99.90
6293;DHT22;3179;54.350;10.102;2024-01-27T00:09:29;7.60;99.90
6293;DHT22;3179;54.350;10.102;2024-01-27T00:11:57;7.60;99.90
6293;DHT22;3179;54.350;10.102;2024-01-27T00:14:24;7.60;99.90
6293;DHT22;3179;54.350;10.102;2024-01-27T00:16:51;7.60;99.90
6293;DHT22;3179;54.350;10.102;2024-01-27T00:19:18;7.60;99.90
6293;DHT22;3179;54.350;10.102;2024-01-27T00:21:45;7.50;99.90
6293;DHT22;3179;54.350;10.102;2024-01-27T00:24:13;7.50;99.90
6293;DHT22;3179;54.350;10.102;2024-01-27T00:26:40;7.50;99.90
6293;DHT22;3179;54.350;10.102;2024-01-27T00:29:08;7.50;99.90
6293;DHT22;3179;54.350;10.102;2024-01-27T00:31:35;7.60;99.90
6293;DHT22;3179;54.350;10.102;2024-01-27T00:34:02;7.50;99.90
6293;DHT22;3179;54.350;10.102;2024-01-27T00:36:29;7.50;99.90
6293;DHT22;3179;54.350;10.102;2024-01-27T00:38:56;7.50;99.90
6293;DHT22;3179;54.350;10.102;2024-01-27T00:41:23;7.50;99.90
6293;DHT22;3179;54.350;10.102;2024-01-27T00:43:49;7.50;99.90
6293;DHT22;3179;54.350;10.102;2024-01-27T00:46:18;7.50;99.90
6293;DHT22;3179;54.350;10.102;2024-01-27T00:48:46;7.50;99.90
6293;DHT22;3179;54.350;10.102;2024-01-27T00:51:13;7.50;99.90
6293;DHT22;3179;54.350;10.102;2024-01-27T00:53:40;7.50;99.90
6293;DHT22;3179;54.350;10.102;2024-01-27T00:56:07;7.50;99.90
6293;DHT22;3179;54.350;10.102;2024-01-27T00:58:34;7.50;99.90
6293;DHT22;3179;54.350;10.102;2024-01-27T01:01:01;7.50;99.90
6293;DHT22;3179;54.350;10.102;2024-01-27T01:03:29;7.50;99.90
6293;DHT22;3179;54.350;10.102;2024-01-27T01:05:56;7.50;99.90
6293;DHT22;3179;54.350;10.102;2024-01-27T01:08:23;7.50;99.90
6293;DHT22;3179;54.350;10.102;2024-01-27T01:10:49;7.50;99.90
6293;DHT22;3179;54.350;10.102;2024-01-27T01:13:17;7.50;99.90
6293;DHT22;3179;54.350;10.102;2024-01-27T01:15:44;7.50;99.90
6293;DHT22;3179;54.350;10.102;2024-01-27T01:18:10;7.50;99.90
6293;DHT22;3179;54.350;10.102;2024-01-27T01:20:39;7.40;99.90
6293;DHT22;3179;54.350;10.102;2024-01-27T01:23:06;7.50;99.90
6293;DHT22;3179;54.350;10.102;2024-01-27T01:25:38;7.40;99.90
6293;DHT22;3179;54.350;10.102;2024-01-27T01:28:05;7.50;99.90
6293;DHT22;3179;54.350;10.102;2024-01-27T01:30:32;7.40;99.90
6293;DHT22;3179;54.350;10.102;2024-01-27T01:32:59;7.40;99.90
6293;DHT22;3179;54.350;10.102;2024-01-27T01:35:26;7.40;99.90
6293;DHT22;3179;54.350;10.102;2024-01-27T01:37:54;7.50;99.90
6293;DHT22;3179;54.350;10.102;2024-01-27T01:40:21;7.50;99.90
6293;DHT22;3179;54.350;10.102;2024-01-27T01:42:50;7.50;99.90
6293;DHT22;3179;54.350;10.102;2024-01-27T01:45:18;7.40;99.90
6293;DHT22;3179;54.350;10.102;2024-01-27T01:47:46;7.50;99.90
6293;DHT22;3179;54.350;10.102;2024-01-27T01:50:13;7.40;99.90
6293;DHT22;3179;54.350;10.102;2024-01-27T01:52:40;7.40;99.90
6293;DHT22;3179;54.350;10.102;2024-01-27T01:55:09;7.50;99.90
6293;DHT22;3179;54.350;10.102;2024-01-27T01:57:35;7.40;99.90
6293;DHT22;3179;54.350;10.102;2024-01-27T02:00:04;7.50;99.90
6293;DHT22;3179;54.350;10.102;2024-01-27T02:02:31;7.40;99.90
6293;DHT22;3179;54.350;10.102;2024-01-27T02:04:58;7.40;99.90
6293;DHT22;3179;54.350;10.102;2024-01-27T02:07:25;7.40;99.90
6293;DHT22;3179;54.350;10.102;2024-01-27T02:09:52;7.50;99.90
6293;DHT22;3179;54.350;10.102;2024-01-27T02:12:20;7.40;99.90
6293;DHT22;3179;54.350;10.102;2024-01-27T02:14:47;7.50;99.90
6293;DHT22;3179;54.350;10.102;2024-01-27T02:17:14;7.50;99.90
6293;DHT22;3179;54.350;10.102;2024-01-27T02:19:41;7.50;99.90
6293;DHT22;3179;54.350;10.102;2024-01-27T02:22:07;7.50;99.90
6293;DHT22;3179;54.350;10.102;2024-01-27T02:24:36;7.50;99.90
6293;DHT22;3179;54.350;10.102;2024-01-27T02:27:03;7.50;99.90
6293;DHT22;3179;54.350;10.102;2024-01-27T02:29:30;7.50;99.90
6293;DHT22;3179;54.350;10.102;2024-01-27T02:31:56;7.50;99.90
6293;DHT22;3179;54.350;10.102;2024-01-27T02:34:23;7.60;99.90
6293;DHT22;3179;54.350;10.102;2024-01-27T02:36:50;7.60;99.90
6293;DHT22;3179;54.350;10.102;2024-01-27T02:39:17;7.50;99.90
6293;DHT22;3179;54.350;10.102;2024-01-27T02:41:45;7.50;99.90
6293;DHT22;3179;54.350;10.102;2024-01-27T02:44:12;7.50;99.90
6293;DHT22;3179;54.350;10.102;2024-01-27T02:46:39;7.50;99.90
6293;DHT22;3179;54.350;10.102;2024-01-27T02:49:08;7.60;99.90
6293;DHT22;3179;54.350;10.102;2024-01-27T02:51:35;7.60;99.90
6293;DHT22;3179;54.350;10.102;2024-01-27T02:54:01;7.60;99.90
6293;DHT22;3179;54.350;10.102;2024-01-27T02:56:28;7.60;99.90
6293;DHT22;3179;54.350;10.102;2024-01-27T02:58:56;7.60;99.90
6293;DHT22;3179;54.350;10.102;2024-01-27T03:01:23;7.60;99.90
6293;DHT22;3179;54.350;10.102;2024-01-27T03:03:50;7.60;99.90
6293;DHT22;3179;54.350;10.102;2024-01-27T03:06:17;7.60;99.90
6293;DHT22;3179;54.350;10.102;2024-01-27T03:08:44;7.60;99.90
6293;DHT22;3179;54.350;10.102;2024-01-27T03:11:11;7.60;99.90
6293;DHT22;3179;54.350;10.102;2024-01-27T03:13:38;7.60;99.90
6293;DHT22;3179;54.350;10.102;2024-01-27T03:16:12;7.70;99.90
6293;DHT22;3179;54.350;10.102;2024-01-27T03:18:38;7.70;99.90
6293;DHT22;3179;54.350;10.102;2024-01-27T03:21:06;7.70;99.90
6293;DHT22;3179;54.350;10.102;2024-01-27T03:23:33;7.70;99.90
6293;DHT22;3179;54.350;10.102;2024-01-27T03:26:02;7.70;99.90
6293;DHT22;3179;54.350;10.102;2024-01-27T03:28:29;7.70;99.90
6293;DHT22;3179;54.350;10.102;2024-01-27T03:30:56;7.70;99.90
6293;DHT22;3179;54.350;10.102;2024-01-27T03:33:26;7.70;99.90
6293;DHT22;3179;54.350;10.102;2024-01-27T03:35:56;7.70;99.90
6293;DHT22;3179;54.350;10.102;2024-01-27T03:38:23;7.70;99.90
6293;DHT22;3179;54.350;10.102;2024-01-27T03:40:50;7.70;99.90
6293;DHT22;3179;54.350;10.102;2024-01-27T03:43:16;7.70;99.90
6293;DHT22;3179;54.350;10.102;2024-01-27T03:45:43;7.70;99.90
6293;DHT22;3179;54.350;10.102;2024-01-27T03:48:10;7.70;99.90
6293;DHT22;3179;54.350;10.102;2024-01-27T03:50:39;7.70;99.90
6293;DHT22;3179;54.350;10.102;2024-01-27T03:53:05;7.70;99.90
6293;DHT22;3179;54.350;10.102;2024-01-27T03:55:33;7.70;99.90
6293;DHT22;3179;54.350;10.102;2024-01-27T03:58:00;7.70;99.90
6293;DHT22;3179;54.350;10.102;2024-01-27T04:00:27;7.70;99.90
6293;DHT22;3179;54.350;10.102;2024-01-27T04:02:55;7.70;99.90
6293;DHT22;3179;54.350;10.102;2024-01-27T04:05:22;7.80;99.90
6293;DHT22;3179;54.350;10.102;2024-01-27T04:07:50;7.70;99.90
6293;DHT22;3179;54.350;10.102;2024-01-27T04:10:18;7.70;99.90
6293;DHT22;3179;54.350;10.102;2024-01-27T04:12:45;7.70;99.90
6293;DHT22;3179;54.350;10.102;2024-01-27T04:15:12;7.70;99.90
6293;DHT22;3179;54.350;10.102;2024-01-27T04:17:39;7.70;99.90
6293;DHT22;3179;54.350;10.102;2024-01-27T04:20:07;7.70;99.90
6293;DHT22;3179;54.350;10.102;2024-01-27T04:22:34;7.70;99.90
6293;DHT22;3179;54.350;10.102;2024-01-27T04:25:03;7.70;99.90
6293;DHT22;3179;54.350;10.102;2024-01-27T04:27:30;7.70;99.90
6293;DHT22;3179;54.350;10.102;2024-01-27T04:29:57;7.70;99.90
6293;DHT22;3179;54.350;10.102;2024-01-27T04:32:24;7.70;99.90
6293;DHT22;3179;54.350;10.102;2024-01-27T04:34:52;7.70;99.90
6293;DHT22;3179;54.350;10.102;2024-01-27T04:37:18;7.70;99.90
6293;DHT22;3179;54.350;10.102;2024-01-27T04:39:45;7.70;99.90
6293;DHT22;3179;54.350;10.102;2024-01-27T04:42:13;7.70;99.90
6293;DHT22;3179;54.350;10.102;2024-01-27T04:44:42;7.70;99.90
6293;DHT22;3179;54.350;10.102;2024-01-27T04:47:09;7.60;99.90
6293;DHT22;3179;54.350;10.102;2024-01-27T04:49:35;7.60;99.90
6293;DHT22;3179;54.350;10.102;2024-01-27T04:52:03;7.60;99.90
6293;DHT22;3179;54.350;10.102;2024-01-27T04:54:30;7.60;99.90
6293;DHT22;3179;54.350;10.102;2024-01-27T04:56:57;7.60;99.90
6293;DHT22;3179;54.350;10.102;2024-01-27T04:59:25;7.60;99.90
6293;DHT22;3179;54.350;10.102;2024-01-27T05:01:52;7.50;99.90
6293;DHT22;3179;54.350;10.102;2024-01-27T05:04:18;7.50;99.90
6293;DHT22;3179;54.350;10.102;2024-01-27T05:06:46;7.50;99.90
6293;DHT22;3179;54.350;10.102;2024-01-27T05:09:12;7.50;99.90
6293;DHT22;3179;54.350;10.102;2024-01-27T05:11:40;7.50;99.90
6293;DHT22;3179;54.350;10.102;2024-01-27T05:14:08;7.50;99.90
6293;DHT22;3179;54.350;10.102;2024-01-27T05:16:36;7.50;99.90
6293;DHT22;3179;54.350;10.102;2024-01-27T05:19:03;7.50;99.90
6293;DHT22;3179;54.350;10.102;2024-01-27T05:21:30;7.50;99.90
6293;DHT22;3179;54.350;10.102;2024-01-27T05:23:57;7.50;99.90
6293;DHT22;3179;54.350;10.102;2024-01-27T05:26:24;7.50;99.90
6293;DHT22;3179;54.350;10.102;2024-01-27T05:28:51;7.50;99.90
6293;DHT22;3179;54.350;10.102;2024-01-27T05:31:18;7.50;99.90
6293;DHT22;3179;54.350;10.102;2024-01-27T05:33:46;7.40;99.90
6293;DHT22;3179;54.350;10.102;2024-01-27T05:36:13;7.40;99.90
6293;DHT22;3179;54.350;10.102;2024-01-27T05:38:39;7.40;99.90
6293;DHT22;3179;54.350;10.102;2024-01-27T05:41:06;7.40;99.90
6293;DHT22;3179;54.350;10.102;2024-01-27T05:43:33;7.40;99.90
6293;DHT22;3179;54.350;10.102;2024-01-27T05:46:00;7.40;99.90
6293;DHT22;3179;54.350;10.102;2024-01-27T05:48:27;7.40;99.90
6293;DHT22;3179;54.350;10.102;2024-01-27T05:50:59;7.40;99.90
6293;DHT22;3179;54.350;10.102;2024-01-27T05:53:27;7.40;99.90
6293;DHT22;3179;54.350;10.102;2024-01-27T05:55:54;7.40;99.90
6293;DHT22;3179;54.350;10.102;2024-01-27T05:58:21;7.40;99.90
6293;DHT22;3179;54.350;10.102;2024-01-27T06:00:48;7.40;99.90
6293;DHT22;3179;54.350;10.102;2024-01-27T06:03:16;7.40;99.90
6293;DHT22;3179;54.350;10.102;2024-01-27T06:05:43;7.40;99.90
6293;DHT22;3179;54.350;10.102;2024-01-27T06:08:12;7.40;99.90
6293;DHT22;3179;54.350;10.102;2024-01-27T06:10:39;7.40;99.90
6293;DHT22;3179;54.350;10.102;2024-01-27T06:13:06;7.40;99.90
6293;DHT22;3179;54.350;10.102;2024-01-27T06:15:33;7.40;99.90
6293;DHT22;3179;54.350;10.102;2024-01-27T06:18:00;7.50;99.90
6293;DHT22;3179;54.350;10.102;2024-01-27T06:20:26;7.50;99.90
6293;DHT22;3179;54.350;10.102;2024-01-27T06:22:53;7.40;99.90
6293;DHT22;3179;54.350;10.102;2024-01-27T06:25:22;7.40;99.90
6293;DHT22;3179;54.350;10.102;2024-01-27T06:27:48;7.40;99.90
6293;DHT22;3179;54.350;10.102;2024-01-27T06:30:15;7.50;99.90
6293;DHT22;3179;54.350;10.102;2024-01-27T06:32:43;7.50;99.90
6293;DHT22;3179;54.350;10.102;2024-01-27T06:35:10;7.50;99.90
6293;DHT22;3179;54.350;10.102;2024-01-27T06:37:37;7.50;99.90
6293;DHT22;3179;54.350;10.102;2024-01-27T06:40:05;7.50;99.90
6293;DHT22;3179;54.350;10.102;2024-01-27T06:42:34;7.50;99.90
6293;DHT22;3179;54.350;10.102;2024-01-27T06:45:01;7.50;99.90
6293;DHT22;3179;54.350;10.102;2024-01-27T06:47:28;7.50;99.90
6293;DHT22;3179;54.350;10.102;2024-01-27T06:49:55;7.50;99.90
6293;DHT22;3179;54.350;10.102;2024-01-27T06:52:22;7.50;99.90
6293;DHT22;3179;54.350;10.102;2024-01-27T06:54:48;7.50;99.90
6293;DHT22;3179;54.350;10.102;2024-01-27T06:57:18;7.50;99.90
6293;DHT22;3179;54.350;10.102;2024-01-27T06:59:48;7.50;99.90
6293;DHT22;3179;54.350;10.102;2024-01-27T07:02:18;7.50;99.90
6293;DHT22;3179;54.350;10.102;2024-01-27T07:04:45;7.40;99.90
6293;DHT22;3179;54.350;10.102;2024-01-27T07:07:12;7.50;99.90
6293;DHT22;3179;54.350;10.102;2024-01-27T07:09:39;7.50;99.90
6293;DHT22;3179;54.350;10.102;2024-01-27T07:12:07;7.40;99.90
6293;DHT22;3179;54.350;10.102;2024-01-27T07:14:34;7.40;99.90
6293;DHT22;3179;54.350;10.102;2024-01-27T07:17:03;7.40;99.90
6293;DHT22;3179;54.350;10.102;2024-01-27T07:19:30;7.40;99.90
6293;DHT22;3179;54.350;10.102;2024-01-27T07:21:57;7.40;99.90
6293;DHT22;3179;54.350;10.102;2024-01-27T07:24:25;7.40;99.90
6293;DHT22;3179;54.350;10.102;2024-01-27T07:26:52;7.40;99.90
6293;DHT22;3179;54.350;10.102;2024-01-27T07:29:19;7.40;99.90
6293;DHT22;3179;54.350;10.102;2024-01-27T07:31:47;7.40;99.90
6293;DHT22;3179;54.350;10.102;2024-01-27T07:34:15;7.40;99.90
6293;DHT22;3179;54.350;10.102;2024-01-27T07:36:43;7.30;99.90
6293;DHT22;3179;54.350;10.102;2024-01-27T07:39:10;7.30;99.90
6293;DHT22;3179;54.350;10.102;2024-01-27T07:41:37;7.40;99.90
6293;DHT22;3179;54.350;10.102;2024-01-27T07:44:07;7.30;99.90
6293;DHT22;3179;54.350;10.102;2024-01-27T07:46:34;7.40;99.90
6293;DHT22;3179;54.350;10.102;2024-01-27T07:49:01;7.40;99.90
6293;DHT22;3179;54.350;10.102;2024-01-27T07:51:30;7.30;99.90
6293;DHT22;3179;54.350;10.102;2024-01-27T07:53:58;7.30;99.90
6293;DHT22;3179;54.350;10.102;2024-01-27T07:56:24;7.30;99.90
6293;DHT22;3179;54.350;10.102;2024-01-27T07:58:51;7.30;99.90
6293;DHT22;3179;54.350;10.102;2024-01-27T08:01:19;7.30;99.90
6293;DHT22;3179;54.350;10.102;2024-01-27T08:03:46;7.30;99.90
6293;DHT22;3179;54.350;10.102;2024-01-27T08:06:15;7.30;99.90
6293;DHT22;3179;54.350;10.102;2024-01-27T08:08:44;7.30;99.90
6293;DHT22;3179;54.350;10.102;2024-01-27T08:11:11;7.30;99.90
6293;DHT22;3179;54.350;10.102;2024-01-27T08:13:38;7.30;99.90
6293;DHT22;3179;54.350;10.102;2024-01-27T08:16:05;7.30;99.90
6293;DHT22;3179;54.350;10.102;2024-01-27T08:18:35;7.30;99.90
6293;DHT22;3179;54.350;10.102;2024-01-27T08:21:02;7.30;99.90
6293;DHT22;3179;54.350;10.102;2024-01-27T08:23:29;7.30;99.90
6293;DHT22;3179;54.350;10.102;2024-01-27T08:25:57;7.30;99.90
6293;DHT22;3179;54.350;10.102;2024-01-27T08:28:24;7.20;99.90
6293;DHT22;3179;54.350;10.102;2024-01-27T08:30:51;7.20;99.90
6293;DHT22;3179;54.350;10.102;2024-01-27T08:33:18;7.30;99.90
6293;DHT22;3179;54.350;10.102;2024-01-27T08:35:46;7.30;99.90
6293;DHT22;3179;54.350;10.102;2024-01-27T08:38:13;7.30;99.90
6293;DHT22;3179;54.350;10.102;2024-01-27T08:40:40;7.30;99.90
6293;DHT22;3179;54.350;10.102;2024-01-27T08:43:09;7.30;99.90
6293;DHT22;3179;54.350;10.102;2024-01-27T08:45:37;7.30;99.90
6293;DHT22;3179;54.350;10.102;2024-01-27T08:48:04;7.30;99.90
6293;DHT22;3179;54.350;10.102;2024-01-27T08:50:32;7.30;99.90
6293;DHT22;3179;54.350;10.102;2024-01-27T08:52:58;7.30;99.90
6293;DHT22;3179;54.350;10.102;2024-01-27T08:55:25;7.30;99.90
6293;DHT22;3179;54.350;10.102;2024-01-27T08:57:52;7.40;99.90
6293;DHT22;3179;54.350;10.102;2024-01-27T09:00:21;7.40;99.90
6293;DHT22;3179;54.350;10.102;2024-01-27T09:02:47;7.40;99.90
6293;DHT22;3179;54.350;10.102;2024-01-27T09:05:14;7.40;99.90
6293;DHT22;3179;54.350;10.102;2024-01-27T09:07:41;7.40;99.90
6293;DHT22;3179;54.350;10.102;2024-01-27T09:10:08;7.40;99.90
6293;DHT22;3179;54.350;10.102;2024-01-27T09:12:38;7.40;99.90
6293;DHT22;3179;54.350;10.102;2024-01-27T09:15:06;7.40;99.90
6293;DHT22;3179;54.350;10.102;2024-01-27T09:17:35;7.50;99.90
6293;DHT22;3179;54.350;10.102;2024-01-27T09:20:02;7.50;99.90
6293;DHT22;3179;54.350;10.102;2024-01-27T09:22:35;7.50;99.90
6293;DHT22;3179;54.350;10.102;2024-01-27T09:25:05;7.50;99.90
6293;DHT22;3179;54.350;10.102;2024-01-27T09:27:32;7.60;99.90
6293;DHT22;3179;54.350;10.102;2024-01-27T09:29:59;7.60;99.90
6293;DHT22;3179;54.350;10.102;2024-01-27T09:32:26;7.70;99.90
6293;DHT22;3179;54.350;10.102;2024-01-27T09:34:54;7.70;99.90
6293;DHT22;3179;54.350;10.102;2024-01-27T09:37:21;7.80;99.90
6293;DHT22;3179;54.350;10.102;2024-01-27T09:39:48;7.80;99.90
6293;DHT22;3179;54.350;10.102;2024-01-27T09:42:15;7.80;99.90
6293;DHT22;3179;54.350;10.102;2024-01-27T09:44:43;7.90;99.90
6293;DHT22;3179;54.350;10.102;2024-01-27T09:47:11;7.90;99.90
6293;DHT22;3179;54.350;10.102;2024-01-27T09:49:39;7.90;99.90
6293;DHT22;3179;54.350;10.102;2024-01-27T09:52:09;8.00;99.90
6293;DHT22;3179;54.350;10.102;2024-01-27T09:54:35;8.00;99.90
6293;DHT22;3179;54.350;10.102;2024-01-27T09:57:03;8.00;99.90
6293;DHT22;3179;54.350;10.102;2024-01-27T09:59:31;8.00;99.90
6293;DHT22;3179;54.350;10.102;2024-01-27T10:02:00;8.00;99.90
6293;DHT22;3179;54.350;10.102;2024-01-27T10:04:28;8.10;99.90
6293;DHT22;3179;54.350;10.102;2024-01-27T10:06:55;8.10;99.90
6293;DHT22;3179;54.350;10.102;2024-01-27T10:09:25;8.10;99.90
6293;DHT22;3179;54.350;10.102;2024-01-27T10:11:54;8.10;99.90
6293;DHT22;3179;54.350;10.102;2024-01-27T10:14:22;8.20;99.90
6293;DHT22;3179;54.350;10.102;2024-01-27T10:16:49;8.20;99.90
6293;DHT22;3179;54.350;10.102;2024-01-27T10:19:17;8.30;99.90
6293;DHT22;3179;54.350;10.102;2024-01-27T10:21:44;8.30;99.90
6293;DHT22;3179;54.350;10.102;2024-01-27T10:24:11;8.40;99.90
6293;DHT22;3179;54.350;10.102;2024-01-27T10:26:40;8.40;99.90
6293;DHT22;3179;54.350;10.102;2024-01-27T10:29:07;8.40;99.90
6293;DHT22;3179;54.350;10.102;2024-01-27T10:31:35;8.50;99.90
6293;DHT22;3179;54.350;10.102;2024-01-27T10:34:02;8.50;99.90
6293;DHT22;3179;54.350;10.102;2024-01-27T10:36:39;8.50;99.90
6293;DHT22;3179;54.350;10.102;2024-01-27T10:39:17;8.50;99.90
6293;DHT22;3179;54.350;10.102;2024-01-27T10:41:47;8.50;99.90
6293;DHT22;3179;54.350;10.102;2024-01-27T10:44:15;8.40;99.90
6293;DHT22;3179;54.350;10.102;2024-01-27T10:46:44;8.40;99.90
6293;DHT22;3179;54.350;10.102;2024-01-27T10:49:13;8.50;99.90
6293;DHT22;3179;54.350;10.102;2024-01-27T10:51:44;8.50;99.90
6293;DHT22;3179;54.350;10.102;2024-01-27T10:54:14;8.50;99.90
6293;DHT22;3179;54.350;10.102;2024-01-27T10:56:42;8.50;99.90
6293;DHT22;3179;54.350;10.102;2024-01-27T10:59:12;8.60;99.90
6293;DHT22;3179;54.350;10.102;2024-01-27T11:01:41;8.60;99.90
6293;DHT22;3179;54.350;10.102;2024-01-27T11:04:11;8.70;99.90
6293;DHT22;3179;54.350;10.102;2024-01-27T11:06:40;8.70;99.90
6293;DHT22;3179;54.350;10.102;2024-01-27T11:09:08;8.60;99.90
6293;DHT22;3179;54.350;10.102;2024-01-27T11:11:38;8.70;99.90
6293;DHT22;3179;54.350;10.102;2024-01-27T11:14:05;8.70;99.90
6293;DHT22;3179;54.350;10.102;2024-01-27T11:16:34;8.70;99.90
6293;DHT22;3179;54.350;10.102;2024-01-27T11:19:02;8.80;99.90
6293;DHT22;3179;54.350;10.102;2024-01-27T11:21:29;8.80;99.90
6293;DHT22;3179;54.350;10.102;2024-01-27T11:23:55;8.70;99.90
6293;DHT22;3179;54.350;10.102;2024-01-27T11:26:23;8.80;99.90
6293;DHT22;3179;54.350;10.102;2024-01-27T11:28:51;8.70;99.90
6293;DHT22;3179;54.350;10.102;2024-01-27T11:31:19;8.70;99.90
6293;DHT22;3179;54.350;10.102;2024-01-27T11:33:50;8.80;99.90
6293;DHT22;3179;54.350;10.102;2024-01-27T11:36:21;8.70;99.90
6293;DHT22;3179;54.350;10.102;2024-01-27T11:38:49;8.80;99.90
6293;DHT22;3179;54.350;10.102;2024-01-27T11:41:26;8.80;99.90
6293;DHT22;3179;54.350;10.102;2024-01-27T11:43:54;8.80;99.90
6293;DHT22;3179;54.350;10.102;2024-01-27T11:46:21;8.80;99.90
6293;DHT22;3179;54.350;10.102;2024-01-27T11:48:49;8.80;99.90
6293;DHT22;3179;54.350;10.102;2024-01-27T11:51:17;8.90;99.90
6293;DHT22;3179;54.350;10.102;2024-01-27T11:53:45;8.80;99.90
6293;DHT22;3179;54.350;10.102;2024-01-27T11:56:12;8.90;99.90
6293;DHT22;3179;54.350;10.102;2024-01-27T11:58:46;8.90;99.90
6293;DHT22;3179;54.350;10.102;2024-01-27T12:01:15;8.90;99.90
6293;DHT22;3179;54.350;10.102;2024-01-27T12:03:42;8.90;99.90
6293;DHT22;3179;54.350;10.102;2024-01-27T12:06:11;8.90;99.90
6293;DHT22;3179;54.350;10.102;2024-01-27T12:08:38;8.90;99.90
6293;DHT22;3179;54.350;10.102;2024-01-27T12:11:12;9.00;99.90
6293;DHT22;3179;54.350;10.102;2024-01-27T12:13:39;9.00;99.90
6293;DHT22;3179;54.350;10.102;2024-01-27T12:16:06;9.10;99.90
6293;DHT22;3179;54.350;10.102;2024-01-27T12:18:34;9.10;99.90
6293;DHT22;3179;54.350;10.102;2024-01-27T12:21:01;9.20;99.90
6293;DHT22;3179;54.350;10.102;2024-01-27T12:23:29;9.20;99.90
6293;DHT22;3179;54.350;10.102;2024-01-27T12:25:56;9.30;99.90
6293;DHT22;3179;54.350;10.102;2024-01-27T12:28:23;9.30;99.90
6293;DHT22;3179;54.350;10.102;2024-01-27T12:30:51;9.30;99.90
6293;DHT22;3179;54.350;10.102;2024-01-27T12:33:18;9.30;99.90
6293;DHT22;3179;54.350;10.102;2024-01-27T12:35:50;9.20;99.90
6293;DHT22;3179;54.350;10.102;2024-01-27T12:38:17;9.20;99.90
6293;DHT22;3179;54.350;10.102;2024-01-27T12:40:46;9.20;99.90
6293;DHT22;3179;54.350;10.102;2024-01-27T12:43:13;9.20;99.90
6293;DHT22;3179;54.350;10.102;2024-01-27T12:45:40;9.20;99.90
6293;DHT22;3179;54.350;10.102;2024-01-27T12:48:07;9.20;99.90
6293;DHT22;3179;54.350;10.102;2024-01-27T12:50:34;9.30;99.90
6293;DHT22;3179;54.350;10.102;2024-01-27T12:53:01;9.20;99.90
6293;DHT22;3179;54.350;10.102;2024-01-27T12:55:28;9.30;99.90
6293;DHT22;3179;54.350;10.102;2024-01-27T12:57:57;9.30;99.90
6293;DHT22;3179;54.350;10.102;2024-01-27T13:00:24;9.30;99.90
6293;DHT22;3179;54.350;10.102;2024-01-27T13:02:51;9.30;99.90
6293;DHT22;3179;54.350;10.102;2024-01-27T13:05:18;9.40;99.90
6293;DHT22;3179;54.350;10.102;2024-01-27T13:07:46;9.40;99.90
6293;DHT22;3179;54.350;10.102;2024-01-27T13:10:14;9.40;99.90
6293;DHT22;3179;54.350;10.102;2024-01-27T13:12:40;9.40;99.90
6293;DHT22;3179;54.350;10.102;2024-01-27T13:15:09;9.40;99.90
6293;DHT22;3179;54.350;10.102;2024-01-27T13:17:39;9.40;99.90
6293;DHT22;3179;54.350;10.102;2024-01-27T13:20:08;9.40;99.90
6293;DHT22;3179;54.350;10.102;2024-01-27T13:22:35;9.50;99.90
6293;DHT22;3179;54.350;10.102;2024-01-27T13:25:02;9.50;99.90
6293;DHT22;3179;54.350;10.102;2024-01-27T13:27:31;9.50;99.90
6293;DHT22;3179;54.350;10.102;2024-01-27T13:29:59;9.50;99.90
6293;DHT22;3179;54.350;10.102;2024-01-27T13:32:28;9.50;99.90
6293;DHT22;3179;54.350;10.102;2024-01-27T13:34:54;9.50;99.90
6293;DHT22;3179;54.350;10.102;2024-01-27T13:37:21;9.50;99.90
6293;DHT22;3179;54.350;10.102;2024-01-27T13:39:48;9.40;99.90
6293;DHT22;3179;54.350;10.102;2024-01-27T13:42:15;9.40;99.90
6293;DHT22;3179;54.350;10.102;2024-01-27T13:44:42;9.30;99.90
6293;DHT22;3179;54.350;10.102;2024-01-27T13:47:09;9.30;99.90
6293;DHT22;3179;54.350;10.102;2024-01-27T13:49:37;9.20;99.90
6293;DHT22;3179;54.350;10.102;2024-01-27T13:52:04;9.20;99.90
6293;DHT22;3179;54.350;10.102;2024-01-27T13:54:31;9.20;99.90
6293;DHT22;3179;54.350;10.102;2024-01-27T13:56:59;9.20;99.90
6293;DHT22;3179;54.350;10.102;2024-01-27T13:59:26;9.10;99.90
6293;DHT22;3179;54.350;10.102;2024-01-27T14:01:53;9.10;99.90
6293;DHT22;3179;54.350;10.102;2024-01-27T14:04:22;9.10;99.90
6293;DHT22;3179;54.350;10.102;2024-01-27T14:06:51;9.00;99.90
6293;DHT22;3179;54.350;10.102;2024-01-27T14:09:18;9.00;99.90
6293;DHT22;3179;54.350;10.102;2024-01-27T14:11:46;9.00;99.90
6293;DHT22;3179;54.350;10.102;2024-01-27T14:14:13;8.90;99.90
6293;DHT22;3179;54.350;10.102;2024-01-27T14:16:40;8.90;99.90
6293;DHT22;3179;54.350;10.102;2024-01-27T14:19:06;8.90;99.90
6293;DHT22;3179;54.350;10.102;2024-01-27T14:21:34;8.90;99.90
6293;DHT22;3179;54.350;10.102;2024-01-27T14:24:04;8.90;99.90
6293;DHT22;3179;54.350;10.102;2024-01-27T14:26:32;8.90;99.90
6293;DHT22;3179;54.350;10.102;2024-01-27T14:28:59;8.90;99.90
6293;DHT22;3179;54.350;10.102;2024-01-27T14:31:26;8.90;99.90
6293;DHT22;3179;54.350;10.102;2024-01-27T14:33:53;8.90;99.90
6293;DHT22;3179;54.350;10.102;2024-01-27T14:36:19;8.90;99.90
6293;DHT22;3179;54.350;10.102;2024-01-27T14:38:49;8.80;99.90
6293;DHT22;3179;54.350;10.102;2024-01-27T14:41:17;8.80;99.90
6293;DHT22;3179;54.350;10.102;2024-01-27T14:43:44;8.80;99.90
6293;DHT22;3179;54.350;10.102;2024-01-27T14:46:10;8.80;99.90
6293;DHT22;3179;54.350;10.102;2024-01-27T14:48:39;8.70;99.90
6293;DHT22;3179;54.350;10.102;2024-01-27T14:51:08;8.70;99.90
6293;DHT22;3179;54.350;10.102;2024-01-27T14:53:35;8.70;99.90
6293;DHT22;3179;54.350;10.102;2024-01-27T14:56:02;8.70;99.90
6293;DHT22;3179;54.350;10.102;2024-01-27T14:58:30;8.70;99.90
6293;DHT22;3179;54.350;10.102;2024-01-27T15:00:57;8.70;99.90
6293;DHT22;3179;54.350;10.102;2024-01-27T15:03:25;8.70;99.90
6293;DHT22;3179;54.350;10.102;2024-01-27T15:05:52;8.70;99.90
6293;DHT22;3179;54.350;10.102;2024-01-27T15:08:19;8.70;99.90
6293;DHT22;3179;54.350;10.102;2024-01-27T15:10:46;8.70;99.90
6293;DHT22;3179;54.350;10.102;2024-01-27T15:13:14;8.70;99.90
6293;DHT22;3179;54.350;10.102;2024-01-27T15:15:43;8.70;99.90
6293;DHT22;3179;54.350;10.102;2024-01-27T15:18:11;8.70;99.90
6293;DHT22;3179;54.350;10.102;2024-01-27T15:20:38;8.70;99.90
6293;DHT22;3179;54.350;10.102;2024-01-27T15:23:05;8.70;99.90
6293;DHT22;3179;54.350;10.102;2024-01-27T15:25:32;8.70;99.90
6293;DHT22;3179;54.350;10.102;2024-01-27T15:27:59;8.70;99.90
6293;DHT22;3179;54.350;10.102;2024-01-27T15:30:25;8.70;99.90
6293;DHT22;3179;54.350;10.102;2024-01-27T15:32:54;8.70;99.90
6293;DHT22;3179;54.350;10.102;2024-01-27T15:35:21;8.70;99.90
6293;DHT22;3179;54.350;10.102;2024-01-27T15:37:47;8.70;99.90
6293;DHT22;3179;54.350;10.102;2024-01-27T15:40:14;8.70;99.90
6293;DHT22;3179;54.350;10.102;2024-01-27T15:42:41;8.70;99.90
6293;DHT22;3179;54.350;10.102;2024-01-27T15:45:08;8.70;99.90
6293;DHT22;3179;54.350;10.102;2024-01-27T15:47:35;8.60;99.90
6293;DHT22;3179;54.350;10.102;2024-01-27T15:50:05;8.60;99.90
6293;DHT22;3179;54.350;10.102;2024-01-27T15:52:32;8.60;99.90
6293;DHT22;3179;54.350;10.102;2024-01-27T15:54:59;8.60;99.90
6293;DHT22;3179;54.350;10.102;2024-01-27T15:57:25;8.60;99.90
6293;DHT22;3179;54.350;10.102;2024-01-27T15:59:52;8.50;99.90
6293;DHT22;3179;54.350;10.102;2024-01-27T16:02:21;8.50;99.90
6293;DHT22;3179;54.350;10.102;2024-01-27T16:04:48;8.50;99.90